Scroll down
FLIGHT INFORMATION
British Airways

BAW1016

At Arrival Gate

ESGG
 EIDW
DATE: 2020-10-16
GATE: G3
GATE DEPARTURE: 23:32
TAKEOFF: 23:45
DATE: 2020-10-17
GATE:  -
LANDING: 01:48
GATE ARRIVAL: 01:58
FLIGHT DATA
Crew: 
Speed: 
472 kts
Altitude: 
34,012 ft
Stage Length: 
677.2 nm
Block Time: 
2.4 hrs
Flight Time: 
2.1 hrs
Fuel Used: 
46,229 lb
Cleared Route: ESGG GG402 GG404 GG405 GG910 TAKOV DETNA AAL KEMEG RERPA EVAKI AMRAM BUSOM PETIL SURAT CUTEL GOMOT MADAD SAB TRN BLACA NELBO NIMAT EKREN ELBON ASDER AKIVA ADNAL APRUT DW865 DW866 NEKIL RISAP RW10R
TRACK DATA
50,000 ft 1,000 kts
AIRCRAFT INFO AND CUMULATIVE STATS
Aircraft Type: 
B744
Registration: 
SELCAL: 
BGMS
MSN/LN: 
25814 / 1079
Operator: 
Total Flights: 
11
Total Block Time: 
30.4 hrs
Total Flight Time: 
27.8 hrs
Total Fuel Time: 
508,681 lb
DATALINK LOG | Newest first | Current as of: 2021-04-10 14:36:34
LABEL SEQUENCE CONTENT Dn/Up
QD011001:58 56▼ Dn
QC510101:48▼ Dn
2U2740EIDW 170000Z 11008KT 9999 FEW024 BKN050 10/06 Q1024 NOSIG▲ Up
2S2841EIDW▼ Dn
5R2841PETIL 00:24z FL340 SURAT 00:30z CUTEL M0.79 37.0 -56 / RW10R 01:42z▼ Dn
QB480223:45▼ Dn
QA334823:32 102.5▼ Dn
2U2315ESGG 162250Z 03005KT CAVOK 01/00 Q1024▲ Up
2S2540ESGG▼ Dn
2U2250EIDW 162300Z 11010KT 9999 FEW022 BKN050 11/06 Q1024 NOSIG▲ Up
2S2338EIDW▼ Dn
Q01429[LINK ACK]▲ Up
Q01429[LINK TEST]▼ Dn


AIRCRAFT HISTORY
FLIGHT DATE FLIGHT NO. ORIGIN DESTINATION CLEARED ROUTE BLOCK TIME FLIGHT TIME FUEL USED PILOT
2020-11-28EIDW EGLL EIDW CI09L RW09L1.2 hrs1 hrs0 lbken rose
2020-10-16BAW1016ESGG EIDW ESGG GG402 GG404 GG405 GG910 TAKOV DETNA AAL KEMEG RERPA EVAKI AMRAM BUSOM PETIL SURAT CUTEL GOMOT MADAD SAB TRN BLACA NELBO NIMAT EKREN ELBON ASDER AKIVA ADNAL APRUT DW865 DW866 NEKIL RISAP RW10R2.4 hrs2.1 hrs46,229 lbDouglas Morlan
2020-10-15BAW1015KSFO ESGG KSFO TRUKN DEDHD ILR MLP ONEAL HAYDN YYC SAXOL PEPGO RODKU ALKIK YBK UX YCY ABIBA APTEK TOR BOMGU XENTA KELIN ESGG10.2 hrs9.8 hrs236,525 lbDouglas Morlan
2020-07-18BAW287EGLL KSFO EGLL D268D D281G BURNB D356D UMLAT WOBUN WELIN AKUPA TIMPO ELVOS TNT RODOL TENSO BELOX REMSI APSOV PIKIL 5720N 5730N 5640N 5550N LOMSI JOVIE DUSMA YRL MOT PARZZ ROOHZ PUHGI JENSA FIMUV LEGGS KSFO11.3 hrs11 hrs270,321 lbMichael Roth
2020-07-14BAW9001EGPK EGLL EGPK LUCCO OSMEG RIPNO DCS LAKEY NUGRA EGLL1 hrs0.8 hrs21,297 lbAnton Vind
2019-02-01BAW201EGLL EGPK EGLL D113B D071J D330T ULTIB TNT D312E DAYNE RW05R1.1 hrs0.8 hrs24,484 lb-HIDDEN-
2019-01-18BAW188EGGP EGLL D084A WHINB NANTI HON TOBID SOPIT WCONB0.8 hrs0.6 hrs18,263 lb-HIDDEN-
2018-11-19EGGP EGGP D084A WHINB NANTI STAFA HON PIXUP FINMA BETPO BIG SANDY MOTOX INGNB LESDO BUBLI LUVAL LANVI EPL LASAT BEGAR ELMUR RESIA LISKO GISNU XAPAT TIGRA BEDEX KRK MALED NIDRI ROTSA NEMES0.5 hrs0.3 hrs12,136 lb-HIDDEN-
2018-08-20BAW9001EGLL EGGP 0.8 hrs0.5 hrs17,820 lbMatthew Gales
2018-08-16BAW0EGFF EGLL 0.8 hrs0.6 hrs15,479 lbMatthew Gales
2018-03-30EGLL EGFF 0.4 hrs0.3 hrs10,060 lbChris Makris